Time;durP1;ratioP1;P1;durP2;ratioP2;P2;SDS_P1;SDS_P2;PMS_P1;PMS_P2;Temp;Humidity;BMP_temperature;BMP_pressure;BME280_temperature;BME280_humidity;BME280_pressure;Samples;Min_cycle;Max_cycle;Signal;HPM_P1;HPM_P2
2023/01/21 00:01:53;;;;;;;25.60;14.20;;;;;;;2.35;74.65;101120.21;1789417;80;21465;-55
2023/01/21 00:04:59;;;;;;;27.45;14.85;;;;;;;2.32;74.68;101125.35;1748798;80;21227;-54
2023/01/21 00:08:07;;;;;;;31.07;14.68;;;;;;;2.30;74.61;101118.34;1791205;78;21191;-52
2023/01/21 00:11:19;;;;;;;32.80;14.10;;;;;;;2.27;74.57;101114.00;1756724;81;21216;-53
2023/01/21 00:14:27;;;;;;;24.70;13.05;;;;;;;2.27;74.58;101113.12;1789578;78;21349;-54
2023/01/21 00:17:34;;;;;;;27.10;14.10;;;;;;;2.26;74.62;101125.78;1756648;81;21200;-54
2023/01/21 00:20:40;;;;;;;27.77;13.38;;;;;;;2.25;74.61;101113.73;1789367;78;21324;-53
2023/01/21 00:23:52;;;;;;;31.80;15.38;;;;;;;2.20;74.48;101114.05;1676295;85;21774;-54
2023/01/21 00:26:58;;;;;;;28.23;14.15;;;;;;;2.16;74.49;101108.94;1723431;83;21176;-53
2023/01/21 00:30:04;;;;;;;28.10;12.75;;;;;;;2.14;74.51;101106.85;1723415;82;21227;-53
2023/01/21 00:33:13;;;;;;;25.52;13.28;;;;;;;2.13;74.57;101109.16;1680752;85;21548;-53
2023/01/21 00:36:21;;;;;;;28.47;13.78;;;;;;;2.09;74.49;101115.27;1680680;85;21264;-53
2023/01/21 00:39:26;;;;;;;27.52;13.40;;;;;;;2.08;74.57;101109.47;1680669;84;21244;-52
2023/01/21 00:42:32;;;;;;;25.55;13.32;;;;;;;2.09;74.58;101104.95;1664760;85;21311;-54
2023/01/21 00:45:38;;;;;;;30.32;12.90;;;;;;;2.07;74.55;101119.03;1665377;85;21403;-54
2023/01/21 00:48:45;;;;;;;29.02;12.53;;;;;;;2.01;74.38;101118.09;1656902;85;21236;-54
2023/01/21 00:51:53;;;;;;;32.00;13.13;;;;;;;1.98;74.46;101112.44;1707732;84;21224;-54
2023/01/21 00:54:59;;;;;;;22.25;12.25;;;;;;;1.98;74.55;101104.81;1727267;81;21203;-53
2023/01/21 00:58:04;;;;;;;25.23;12.68;;;;;;;2.01;74.63;101096.03;1703340;83;21215;-53
2023/01/21 01:01:15;;;;;;;25.55;12.63;;;;;;;2.04;74.69;101098.98;1728332;83;21255;-53
2023/01/21 01:04:21;;;;;;;24.80;12.03;;;;;;;2.04;74.66;101102.56;1728143;81;21231;-53
2023/01/21 01:07:27;;;;;;;30.32;11.95;;;;;;;1.99;74.48;101109.23;1707524;84;21241;-53
2023/01/21 01:10:34;;;;;;;28.05;12.58;;;;;;;1.98;74.47;101106.16;1707798;82;21232;-54
2023/01/21 01:13:42;;;;;;;25.23;11.25;;;;;;;1.95;74.42;101107.72;1714942;82;21220;-52
2023/01/21 01:16:49;;;;;;;23.87;11.10;;;;;;;1.93;74.43;101100.20;1707035;84;21256;-53
2023/01/21 01:19:56;;;;;;;23.32;10.98;;;;;;;1.94;74.52;101093.82;1715102;82;21268;-53
2023/01/21 01:23:03;;;;;;;20.62;10.60;;;;;;;1.96;74.54;101087.84;1706540;82;21272;-53
2023/01/21 01:26:13;;;;;;;23.45;10.95;;;;;;;1.95;74.51;101072.62;1691784;84;21220;-53
2023/01/21 01:29:20;;;;;;;22.17;11.45;;;;;;;1.87;74.24;101079.03;1707418;82;21240;-53
2023/01/21 01:32:25;;;;;;;19.57;10.03;;;;;;;1.80;74.27;101074.53;1707912;84;21231;-53
2023/01/21 01:35:32;;;;;;;25.62;10.72;;;;;;;1.82;74.39;101064.50;1708016;82;21248;-53
2023/01/21 01:38:38;;;;;;;26.10;9.53;;;;;;;1.83;74.38;101068.92;1715310;82;21287;-53
2023/01/21 01:41:44;;;;;;;23.10;10.05;;;;;;;1.83;74.35;101068.92;1715396;83;21196;-54
2023/01/21 01:45:12;;;;;;;19.67;9.75;;;;;;;1.82;74.35;101067.20;1707317;82;21185;-53
2023/01/21 01:48:22;;;;;;;22.87;9.38;;;;;;;1.84;74.37;101076.55;1695778;83;21231;-53
2023/01/21 01:51:32;;;;;;;24.23;10.15;;;;;;;1.84;74.47;101075.19;1708101;84;21284;-54
2023/01/21 01:54:43;;;;;;;17.90;8.93;;;;;;;1.84;74.39;101059.84;1706721;82;21260;-54
2023/01/21 01:57:53;;;;;;;21.85;9.45;;;;;;;1.83;74.34;101063.99;1708217;84;21216;-52
2023/01/21 02:00:58;;;;;;;22.20;9.00;;;;;;;1.80;74.28;101089.84;1695562;83;21843;-53
2023/01/21 02:04:04;;;;;;;17.57;7.75;;;;;;;1.81;74.36;101087.55;1708104;82;21271;-53
2023/01/21 02:07:09;;;;;;;13.72;7.50;;;;;;;1.83;74.38;101088.28;1708087;84;21209;-54
2023/01/21 02:10:19;;;;;;;20.12;7.95;;;;;;;1.82;74.38;101082.52;1708142;82;21256;-55
2023/01/21 02:13:30;;;;;;;18.65;8.05;;;;;;;1.83;74.32;101088.28;1707957;84;21248;-53
2023/01/21 02:16:45;;;;;;;14.87;7.17;;;;;;;1.83;74.34;101092.33;1707943;84;21209;-54
2023/01/21 02:20:20;;;;;;;17.40;8.13;;;;;;;1.85;74.41;101080.95;1707760;82;21197;-53
2023/01/21 02:23:32;;;;;;;14.00;6.90;;;;;;;1.88;74.41;101078.92;1708017;84;21232;-54
2023/01/21 02:27:15;;;;;;;14.80;7.42;;;;;;;1.88;74.38;101068.60;1701030;84;21324;-53
2023/01/21 02:30:58;;;;;;;16.82;7.33;;;;;;;1.86;74.25;101067.83;1703863;83;21233;-53
2023/01/21 02:34:21;;;;;;;16.52;7.87;;;;;;;1.73;74.00;101077.25;1703605;83;21237;-54
2023/01/21 02:37:53;;;;;;;15.13;7.50;;;;;;;1.65;74.01;101080.94;1703930;83;21244;-52
2023/01/21 02:41:10;;;;;;;15.58;7.28;;;;;;;1.60;74.06;101076.36;1703848;82;21279;-54
2023/01/21 02:44:19;;;;;;;14.07;6.95;;;;;;;1.63;74.22;101068.53;1703237;83;21260;-54
2023/01/21 02:48:07;;;;;;;11.95;6.87;;;;;;;1.67;74.37;101085.75;1703669;84;21264;-52
2023/01/21 02:51:14;;;;;;;12.03;6.00;;;;;;;1.73;74.35;101083.14;1704506;83;21201;-53
2023/01/21 02:54:41;;;;;;;14.18;7.03;;;;;;;1.69;74.22;101074.39;1703572;83;21296;-53
2023/01/21 02:57:51;;;;;;;10.93;5.55;;;;;;;1.68;74.22;101072.67;1703539;84;21177;-54
2023/01/21 03:01:27;;;;;;;12.03;6.50;;;;;;;1.66;74.20;101046.27;1704442;82;21218;-54
2023/01/21 03:05:08;;;;;;;14.28;5.87;;;;;;;1.66;74.17;101058.88;1703671;83;21185;-54
2023/01/21 03:08:31;;;;;;;15.58;6.25;;;;;;;1.68;74.23;101067.74;1704309;84;21216;-52
2023/01/21 03:11:36;;;;;;;12.78;5.45;;;;;;;1.66;74.17;101075.06;1703516;84;21218;-53
2023/01/21 03:18:32;;;;;;;;;;;;;;;1.71;74.16;101094.52;1706153;84;21604;-54
2023/01/21 03:21:37;;;;;;;11.55;4.97;;;;;;;1.71;74.17;101095.39;1703538;84;20197;-55
2023/01/21 03:24:44;;;;;;;11.03;5.42;;;;;;;1.63;73.92;101115.75;1703510;82;21281;-53
2023/01/21 03:27:52;;;;;;;12.37;4.72;;;;;;;1.61;73.97;101109.58;1703415;83;21192;-53
2023/01/21 03:31:03;;;;;;;13.20;5.17;;;;;;;1.59;73.90;101095.34;1704151;82;21216;-53
2023/01/21 03:34:12;;;;;;;13.25;5.50;;;;;;;1.51;73.78;101098.06;1704070;83;21433;-53
2023/01/21 03:37:24;;;;;;;11.12;4.85;;;;;;;1.53;73.89;101080.42;1703767;83;21228;-53
2023/01/21 03:40:43;;;;;;;10.88;5.35;;;;;;;1.55;73.93;101075.80;1704050;83;21314;-53
2023/01/21 03:43:49;;;;;;;11.15;5.10;;;;;;;1.61;73.99;101075.86;1703999;83;21244;-52
2023/01/21 03:47:11;;;;;;;15.05;4.67;;;;;;;1.59;73.84;101078.66;1703708;84;21279;-54
2023/01/21 03:50:29;;;;;;;12.00;4.50;;;;;;;1.60;73.83;101080.87;1703457;83;21311;-53
2023/01/21 03:53:35;;;;;;;8.45;4.58;;;;;;;1.58;73.79;101074.23;1703650;84;21213;-53
2023/01/21 03:56:41;;;;;;;10.00;4.25;;;;;;;1.53;73.68;101075.02;1688717;84;21220;-53
2023/01/21 03:59:47;;;;;;;11.05;5.78;;;;;;;1.53;73.72;101080.42;1704116;83;21237;-52
2023/01/21 04:02:55;;;;;;;10.45;4.97;;;;;;;1.53;73.66;101090.73;1692315;83;21351;-53
2023/01/21 04:06:00;;;;;;;7.50;4.47;;;;;;;1.47;73.57;101083.02;1703934;83;21270;-52
2023/01/21 04:09:07;;;;;;;7.90;4.80;;;;;;;1.48;73.65;101072.64;1703508;83;21225;-53
2023/01/21 04:12:13;;;;;;;12.07;4.62;;;;;;;1.47;73.57;101060.59;1703599;84;21307;-54
2023/01/21 04:15:18;;;;;;;10.98;4.58;;;;;;;1.41;73.46;101072.64;1691409;83;21212;-53
2023/01/21 04:18:24;;;;;;;12.23;4.70;;;;;;;1.40;73.54;101064.19;1703787;83;21253;-53
2023/01/21 04:21:29;;;;;;;7.92;4.12;;;;;;;1.42;73.67;101062.73;1704509;83;21556;-54
2023/01/21 04:24:35;;;;;;;11.93;4.70;;;;;;;1.45;73.65;101080.06;1703569;83;21370;-53
2023/01/21 04:27:42;;;;;;;13.15;4.70;;;;;;;1.42;73.61;101082.48;1705718;83;21220;-53
2023/01/21 04:30:47;;;;;;;8.73;4.80;;;;;;;1.42;73.59;101065.43;1693942;83;21207;-52
2023/01/21 04:33:54;;;;;;;18.65;4.78;;;;;;;1.40;73.58;101060.61;1715340;82;21224;-53
2023/01/21 04:37:00;;;;;;;9.40;4.60;;;;;;;1.37;73.45;101070.25;1707950;83;21236;-53
2023/01/21 04:40:06;;;;;;;12.05;4.90;;;;;;;1.36;73.50;101069.89;1706972;82;21305;-51
2023/01/21 04:43:12;;;;;;;14.80;4.78;;;;;;;1.37;73.51;101073.83;1691701;83;21208;-53
2023/01/21 04:46:18;;;;;;;8.70;4.12;;;;;;;1.38;73.54;101070.63;1708072;84;21224;-53
2023/01/21 04:49:24;;;;;;;9.33;4.80;;;;;;;1.38;73.51;101072.85;1691275;84;21662;-52
2023/01/21 04:52:30;;;;;;;8.18;4.22;;;;;;;1.38;73.45;101080.06;1691687;83;21185;-55
2023/01/21 04:55:36;;;;;;;7.50;4.15;;;;;;;1.34;73.29;101071.34;1707840;82;21276;-53
2023/01/21 04:58:42;;;;;;;10.75;4.55;;;;;;;1.27;73.22;101080.78;1693681;82;21212;-52
2023/01/21 05:01:50;;;;;;;9.28;4.30;;;;;;;1.28;73.29;101091.09;1707893;84;21342;-53
2023/01/21 05:04:56;;;;;;;17.40;5.72;;;;;;;1.30;73.41;101073.83;1707974;82;21331;-53
2023/01/21 05:08:03;;;;;;;12.10;5.42;;;;;;;1.31;73.39;101070.66;1707951;84;21765;-53
2023/01/21 05:11:09;;;;;;;13.62;6.60;;;;;;;1.28;73.21;101057.39;1693691;83;21315;-53
2023/01/21 05:14:15;;;;;;;12.30;6.47;;;;;;;1.22;73.14;101068.08;1706845;82;21232;-52
2023/01/21 05:17:21;;;;;;;18.42;7.90;;;;;;;1.16;73.00;101064.91;1708055;84;21189;-52
2023/01/21 05:20:28;;;;;;;16.87;9.20;;;;;;;1.11;73.11;101066.56;1707868;82;21283;-53
2023/01/21 05:23:35;;;;;;;14.65;6.42;;;;;;;1.11;73.18;101056.28;1707519;84;21256;-53
2023/01/21 05:26:40;;;;;;;13.55;7.00;;;;;;;1.10;73.19;101078.80;1708064;84;21236;-52
2023/01/21 05:29:48;;;;;;;14.50;6.90;;;;;;;1.09;73.16;101067.64;1688248;84;21268;-54
2023/01/21 05:33:00;;;;;;;19.32;9.90;;;;;;;1.02;73.02;101103.56;1703613;84;21216;-53
2023/01/21 05:36:06;;;;;;;19.17;8.23;;;;;;;0.96;72.98;101091.83;1704033;84;21272;-53
2023/01/21 05:39:13;;;;;;;23.65;10.80;;;;;;;0.91;72.91;101102.50;1703718;83;21228;-53
2023/01/21 05:42:19;;;;;;;20.75;9.63;;;;;;;0.89;72.97;101092.29;1692051;83;21173;-52
2023/01/21 05:45:24;;;;;;;17.75;8.18;;;;;;;0.91;73.04;101115.97;1703858;83;21236;-53
2023/01/21 05:48:31;;;;;;;15.45;6.55;;;;;;;0.94;73.11;101127.44;1679364;83;21220;-53
2023/01/21 05:51:35;;;;;;;21.07;7.22;;;;;;;0.97;73.14;101138.48;1687144;84;21229;-53
2023/01/21 05:54:40;;;;;;;11.40;6.55;;;;;;;1.02;73.16;101152.08;1702793;83;21224;-53
2023/01/21 05:57:49;;;;;;;10.25;6.00;;;;;;;1.07;73.19;101163.91;1703611;83;21837;-53
2023/01/21 06:00:55;;;;;;;10.70;5.35;;;;;;;1.08;73.02;101146.29;1702995;82;21304;-54
2023/01/21 06:04:00;;;;;;;11.60;5.15;;;;;;;1.05;72.90;101160.44;1691971;83;21375;-55
2023/01/21 06:07:00;;;;;;;13.35;5.17;;;;;;;1.03;72.82;101163.23;1702998;84;21602;-53
2023/01/21 06:10:05;;;;;;;11.22;5.03;;;;;;;1.02;72.77;101169.60;1703774;83;21598;-54
2023/01/21 06:13:11;;;;;;;10.35;5.55;;;;;;;1.03;72.79;101164.58;1703276;83;21189;-53
2023/01/21 06:16:16;;;;;;;12.65;5.55;;;;;;;1.12;72.92;101158.63;1702826;83;21261;-52
2023/01/21 06:19:23;;;;;;;16.20;5.78;;;;;;;1.20;72.88;101169.80;1702208;83;21233;-53
2023/01/21 06:22:28;;;;;;;11.30;5.08;;;;;;;1.21;72.77;101172.87;1702810;84;21220;-53
2023/01/21 06:25:27;;;;;;;13.10;5.08;;;;;;;1.27;72.78;101176.98;1702712;83;21236;-53
2023/01/21 06:28:32;;;;;;;13.38;6.30;;;;;;;1.32;72.75;101179.79;1701050;84;21733;-52
2023/01/21 06:31:39;;;;;;;17.35;5.33;;;;;;;1.35;72.66;101174.20;1644722;84;21316;-53
2023/01/21 06:34:45;;;;;;;17.52;5.30;;;;;;;1.38;72.57;101175.34;1685677;83;21281;-53
2023/01/21 06:37:53;;;;;;;14.80;6.15;;;;;;;1.33;72.44;101174.77;1671238;84;21257;-53
2023/01/21 06:41:00;;;;;;;15.18;5.83;;;;;;;1.42;72.60;101184.11;1685680;83;21776;-53
2023/01/21 06:44:07;;;;;;;10.75;5.62;;;;;;;1.47;72.57;101180.13;1685885;84;21237;-53
2023/01/21 06:47:13;;;;;;;11.28;5.70;;;;;;;1.45;72.42;101190.19;1685619;84;21269;-52
2023/01/21 06:50:22;;;;;;;14.40;5.60;;;;;;;1.47;72.36;101176.59;1671614;84;21241;-51
2023/01/21 06:53:32;;;;;;;16.50;7.12;;;;;;;1.47;72.35;101166.65;1686351;84;21194;-52
2023/01/21 06:56:43;;;;;;;10.85;5.17;;;;;;;1.47;72.44;101181.98;1686123;84;21261;-54
2023/01/21 06:59:48;;;;;;;10.65;5.70;;;;;;;1.47;72.44;101181.98;1685912;84;21269;-52
2023/01/21 07:02:56;;;;;;;11.20;5.80;;;;;;;1.56;72.41;101190.83;1686007;84;21226;-53
2023/01/21 07:06:02;;;;;;;13.98;6.45;;;;;;;1.62;72.40;101181.48;1686022;84;21415;-53
2023/01/21 07:09:10;;;;;;;13.70;6.97;;;;;;;1.63;72.21;101165.66;1674161;84;21283;-52
2023/01/21 07:12:15;;;;;;;12.07;6.12;;;;;;;1.61;72.16;101187.83;1643909;86;21227;-52
2023/01/21 07:15:24;;;;;;;10.65;6.62;;;;;;;1.63;72.13;101184.55;1656643;85;21548;-53
2023/01/21 07:18:30;;;;;;;13.60;6.45;;;;;;;1.65;72.12;101196.13;1656845;86;21216;-55
2023/01/21 07:21:35;;;;;;;14.60;7.40;;;;;;;1.63;71.94;101210.19;1656704;86;21783;-53
2023/01/21 07:24:42;;;;;;;14.20;7.10;;;;;;;1.55;71.85;101216.09;1656908;85;21227;-52
2023/01/21 07:27:50;;;;;;;11.73;5.97;;;;;;;1.59;72.03;101209.52;1656729;86;21386;-54
2023/01/21 07:30:57;;;;;;;13.70;7.40;;;;;;;1.72;72.21;101223.95;1685155;82;21204;-54
2023/01/21 07:34:03;;;;;;;17.73;7.30;;;;;;;1.74;72.09;101235.52;1657735;85;21369;-52
2023/01/21 07:37:09;;;;;;;16.07;7.87;;;;;;;1.76;72.00;101243.52;1658600;86;21285;-53
2023/01/21 07:40:17;;;;;;;18.48;8.10;;;;;;;1.76;72.01;101251.61;1658218;85;21264;-53
2023/01/21 07:43:26;;;;;;;16.52;8.75;;;;;;;1.77;71.89;101251.98;1658141;86;21213;-53
2023/01/21 07:46:33;;;;;;;17.62;8.20;;;;;;;1.74;71.82;101277.36;1658128;86;21225;-53
2023/01/21 07:49:39;;;;;;;14.58;7.30;;;;;;;1.69;71.77;101266.45;1663983;85;21249;-53
2023/01/21 07:52:47;;;;;;;16.77;7.75;;;;;;;1.75;71.92;101268.75;1682961;84;21281;-53
2023/01/21 07:55:53;;;;;;;19.82;8.28;;;;;;;1.80;71.95;101276.08;1669906;84;21285;-54
2023/01/21 07:58:58;;;;;;;15.90;8.33;;;;;;;1.90;72.02;101262.38;1657593;85;21865;-53
2023/01/21 08:02:04;;;;;;;16.77;7.97;;;;;;;1.91;71.84;101254.66;1657663;86;21766;-53
2023/01/21 08:05:12;;;;;;;16.75;8.38;;;;;;;1.91;71.79;101272.20;1657969;85;21229;-54
2023/01/21 08:08:18;;;;;;;17.05;8.73;;;;;;;1.99;71.95;101274.80;1657494;86;21805;-52
2023/01/21 08:11:25;;;;;;;17.95;8.63;;;;;;;2.03;71.80;101284.92;1657640;86;21233;-52
2023/01/21 08:14:31;;;;;;;18.42;8.55;;;;;;;2.06;71.74;101290.13;1657596;85;21252;-52
2023/01/21 08:17:36;;;;;;;18.07;8.88;;;;;;;2.00;71.57;101290.53;1658950;86;21403;-53
2023/01/21 08:20:43;;;;;;;19.30;8.33;;;;;;;2.02;71.66;101286.75;1657320;85;21245;-53
2023/01/21 08:23:49;;;;;;;18.65;8.80;;;;;;;1.98;71.60;101267.68;1663331;83;21778;-52
2023/01/21 08:26:55;;;;;;;17.07;9.18;;;;;;;2.05;71.65;101269.00;1685627;84;21217;-52
2023/01/21 08:30:01;;;;;;;19.60;8.58;;;;;;;2.11;71.61;101258.28;1685278;84;21564;-52
2023/01/21 08:33:07;;;;;;;16.85;8.08;;;;;;;2.14;71.53;101258.08;1704773;83;21209;-53
2023/01/21 08:36:15;;;;;;;19.25;8.70;;;;;;;2.17;71.55;101251.13;1706860;84;21461;-53
2023/01/21 08:39:22;;;;;;;18.12;8.80;;;;;;;2.21;71.55;101246.77;1692781;82;21769;-52
2023/01/21 08:42:30;;;;;;;21.97;9.13;;;;;;;2.30;71.69;101252.89;1707001;84;21264;-52
2023/01/21 08:45:36;;;;;;;19.17;9.55;;;;;;;2.34;71.44;101261.67;1698763;82;21264;-52
2023/01/21 08:48:41;;;;;;;20.90;9.35;;;;;;;2.33;71.34;101257.25;1704643;82;21268;-51
2023/01/21 08:51:48;;;;;;;19.90;8.80;;;;;;;2.30;71.34;101264.20;1693437;83;21785;-52
2023/01/21 08:54:54;;;;;;;18.07;10.13;;;;;;;2.32;71.26;101275.28;1699831;82;22133;-52
2023/01/21 08:58:00;;;;;;;21.07;10.40;;;;;;;2.31;71.14;101276.73;1716055;83;21740;-52
2023/01/21 09:01:17;;;;;;;20.90;10.75;;;;;;;2.28;71.18;101271.06;1727377;83;21223;-52
2023/01/21 09:04:16;;;;;;;23.92;10.93;;;;;;;2.36;71.20;101280.00;1692368;81;21234;-51
2023/01/21 09:07:11;;;;;;;24.12;10.85;;;;;;;2.39;71.16;101301.41;1717413;83;21264;-51
2023/01/21 09:10:59;;;;;;;24.00;11.38;;;;;;;2.33;71.04;101308.06;1716241;81;21609;-52
2023/01/21 09:13:24;;;;;;;20.30;11.15;;;;;;;2.32;71.05;101321.67;1699099;84;21202;-52
2023/01/21 09:16:35;;;;;;;19.40;11.30;;;;;;;2.27;70.95;101325.16;1713870;83;21825;-53
2023/01/21 09:19:41;;;;;;;23.73;10.43;;;;;;;2.15;70.84;101336.30;1702570;84;21912;-53
2023/01/21 09:22:48;;;;;;;20.82;11.15;;;;;;;2.10;70.88;101347.00;1726737;83;21184;-53
2023/01/21 09:25:55;;;;;;;23.87;11.60;;;;;;;2.04;70.92;101346.05;1704875;83;21260;-52
2023/01/21 09:29:03;;;;;;;21.33;11.35;;;;;;;2.01;71.07;101351.65;1697743;83;21380;-53
2023/01/21 09:32:10;;;;;;;22.73;11.22;;;;;;;2.07;71.22;101355.30;1676236;85;21231;-52
2023/01/21 09:35:18;;;;;;;24.92;13.43;;;;;;;2.14;71.35;101359.36;1658597;85;21241;-53
2023/01/21 09:38:24;;;;;;;27.77;13.72;;;;;;;2.17;71.39;101355.95;1657264;86;21269;-52
2023/01/21 09:41:38;;;;;;;24.67;12.33;;;;;;;2.24;71.39;101368.58;1657265;86;21349;-52
2023/01/21 09:44:52;;;;;;;21.48;12.37;;;;;;;2.22;71.20;101366.48;1658380;85;21854;-52
2023/01/21 09:47:57;;;;;;;21.45;11.05;;;;;;;2.17;71.21;101367.26;1666113;85;21391;-53
2023/01/21 09:51:04;;;;;;;19.60;11.38;;;;;;;2.22;71.33;101352.98;1663501;85;21268;-53
2023/01/21 09:54:09;;;;;;;29.00;11.80;;;;;;;2.28;71.35;101356.63;1655693;85;21244;-53
2023/01/21 09:57:46;;;;;;;23.67;10.95;;;;;;;2.32;71.34;101344.64;1681161;84;21225;-54
2023/01/21 10:01:01;;;;;;;20.88;11.28;;;;;;;2.34;71.33;101340.89;1677574;84;21900;-54
2023/01/21 10:04:11;;;;;;;22.48;11.25;;;;;;;2.45;71.44;101353.69;1647691;87;22164;-52
2023/01/21 10:07:27;;;;;;;23.65;12.23;;;;;;;2.51;71.45;101340.64;1693642;84;21201;-53
2023/01/21 10:10:56;;;;;;;24.85;12.10;;;;;;;2.63;71.48;101341.67;1685430;84;21245;-52
2023/01/21 10:14:37;;;;;;;22.67;11.95;;;;;;;2.72;71.43;101335.16;1685714;84;21233;-52
2023/01/21 10:18:15;;;;;;;24.43;12.15;;;;;;;2.80;71.45;101335.52;1679076;84;21202;-52
2023/01/21 10:21:39;;;;;;;23.55;11.60;;;;;;;2.86;71.33;101334.22;1671676;84;21229;-52
2023/01/21 10:24:50;;;;;;;25.17;12.80;;;;;;;2.90;71.21;101324.44;1683496;84;21250;-53
2023/01/21 10:27:58;;;;;;;29.07;14.05;;;;;;;2.96;71.36;101326.75;1680550;84;21266;-52
2023/01/21 10:31:29;;;;;;;30.85;13.72;;;;;;;3.07;71.38;101340.88;1657158;86;21214;-52
2023/01/21 10:34:39;;;;;;;25.77;13.93;;;;;;;3.14;71.31;101340.82;1643641;85;21734;-53
2023/01/21 10:38:03;;;;;;;31.70;14.78;;;;;;;3.12;71.13;101336.02;1716396;83;21216;-52
2023/01/21 10:41:41;;;;;;;27.02;13.25;;;;;;;3.08;70.99;101330.43;1717043;83;21186;-52
2023/01/21 10:45:10;;;;;;;28.50;14.55;;;;;;;3.12;71.14;101344.62;1716934;82;21693;-52
2023/01/21 10:48:26;;;;;;;31.73;14.65;;;;;;;3.06;70.96;101332.36;1716717;83;21253;-54
2023/01/21 10:51:40;;;;;;;29.15;14.10;;;;;;;3.12;71.07;101329.73;1717517;83;21731;-52
2023/01/21 10:55:02;;;;;;;30.20;15.25;;;;;;;3.13;71.05;101321.52;1717112;81;21304;-52
2023/01/21 10:58:36;;;;;;;32.05;14.05;;;;;;;3.19;71.17;101318.37;1717077;82;21222;-52
2023/01/21 11:01:53;;;;;;;34.33;14.53;;;;;;;3.28;71.17;101329.06;1688125;83;21582;-53
2023/01/21 11:05:01;;;;;;;28.15;15.88;;;;;;;3.31;71.06;101338.31;1713382;82;21228;-53
2023/01/21 11:08:06;;;;;;;40.40;16.65;;;;;;;3.37;71.13;101340.59;1690641;83;21200;-53
2023/01/21 11:11:13;;;;;;;35.98;16.50;;;;;;;3.36;70.97;101364.10;1713753;83;21228;-54
2023/01/21 11:14:19;;;;;;;27.80;14.23;;;;;;;3.28;70.86;101366.47;1697048;83;21286;-54
2023/01/21 11:17:38;;;;;;;25.57;14.53;;;;;;;3.28;70.95;101378.64;1683916;83;21754;-52
2023/01/21 11:20:49;;;;;;;37.28;15.55;;;;;;;3.25;70.85;101380.17;1704971;83;21227;-53
2023/01/21 11:24:09;;;;;;;28.50;14.63;;;;;;;3.12;70.74;101387.42;1716722;82;21734;-53
2023/01/21 11:27:24;;;;;;;31.55;16.37;;;;;;;3.06;70.85;101383.75;1717582;82;21217;-54
2023/01/21 11:30:43;;;;;;;27.75;15.03;;;;;;;3.04;70.90;101376.25;1702279;83;21253;-54
2023/01/21 11:33:51;;;;;;;34.75;14.15;;;;;;;2.99;70.94;101379.75;1717062;83;21206;-53
2023/01/21 11:37:12;;;;;;;26.35;13.15;;;;;;;3.05;71.15;101381.55;1706838;84;21763;-53
2023/01/21 11:40:28;;;;;;;24.25;13.60;;;;;;;3.11;71.21;101381.61;1718144;83;21390;-53
2023/01/21 11:43:53;;;;;;;29.07;13.72;;;;;;;3.12;71.12;101386.07;1718249;82;21277;-53
2023/01/21 11:46:59;;;;;;;25.65;13.85;;;;;;;3.12;71.14;101380.66;1718296;83;21218;-52
2023/01/21 11:50:11;;;;;;;25.88;13.10;;;;;;;3.18;71.30;101389.70;1718384;82;21217;-54
2023/01/21 11:53:23;;;;;;;30.88;14.68;;;;;;;3.24;71.23;101396.52;1700341;83;21221;-53
2023/01/21 11:56:30;;;;;;;30.10;14.78;;;;;;;3.23;71.13;101397.02;1707130;84;21331;-53
2023/01/21 11:59:42;;;;;;;27.50;14.35;;;;;;;3.25;71.15;101401.82;1718285;82;21250;-54
2023/01/21 12:02:53;;;;;;;30.15;15.72;;;;;;;3.36;71.35;101406.05;1718083;82;21213;-53
2023/01/21 12:05:59;;;;;;;30.77;14.90;;;;;;;3.39;71.33;101400.42;1718309;83;21750;-53
2023/01/21 12:09:09;;;;;;;26.90;14.18;;;;;;;3.45;71.36;101407.23;1717856;81;21227;-54
2023/01/21 12:12:38;;;;;;;36.90;14.30;;;;;;;3.50;71.33;101415.43;1678323;84;21555;-54
2023/01/21 12:16:14;;;;;;;27.85;14.47;;;;;;;3.49;71.10;101418.25;1676307;85;21315;-53
2023/01/21 12:19:42;;;;;;;32.08;13.45;;;;;;;3.43;70.97;101415.46;1687581;84;21243;-53
2023/01/21 12:22:58;;;;;;;28.35;14.18;;;;;;;3.41;71.10;101423.31;1687488;85;21220;-54
2023/01/21 12:26:20;;;;;;;26.23;13.70;;;;;;;3.46;71.23;101419.30;1667888;85;21686;-52
2023/01/21 12:29:36;;;;;;;22.95;12.40;;;;;;;3.53;71.34;101420.63;1657749;86;21233;-52
2023/01/21 12:32:49;;;;;;;28.27;13.75;;;;;;;3.60;71.33;101430.04;1688003;84;21245;-54
2023/01/21 12:35:59;;;;;;;29.10;13.88;;;;;;;3.62;71.30;101426.75;1689892;81;21224;-56
2023/01/21 12:39:22;;;;;;;28.47;14.80;;;;;;;3.65;71.27;101437.37;1691953;85;21323;-54
2023/01/21 12:42:37;;;;;;;25.55;13.70;;;;;;;3.67;71.22;101446.25;1702107;83;21259;-54
2023/01/21 12:45:55;;;;;;;28.05;14.63;;;;;;;3.71;71.29;101450.98;1676339;85;21284;-53
2023/01/21 12:49:08;;;;;;;29.77;14.43;;;;;;;3.76;71.35;101454.24;1676593;85;21295;-54
2023/01/21 12:52:37;;;;;;;25.48;13.70;;;;;;;3.79;71.31;101454.88;1677640;84;21261;-54
2023/01/21 12:56:21;;;;;;;30.52;15.08;;;;;;;3.78;71.26;101470.75;1677484;85;21249;-54
2023/01/21 12:59:35;;;;;;;31.52;14.95;;;;;;;3.66;70.92;101474.80;1677145;85;21249;-54
2023/01/21 13:03:03;;;;;;;31.12;14.90;;;;;;;3.58;71.01;101483.92;1676545;85;21367;-55
2023/01/21 13:06:39;;;;;;;26.68;14.13;;;;;;;3.53;70.97;101482.01;1663922;85;21308;-53
2023/01/21 13:09:51;;;;;;;29.00;14.87;;;;;;;3.50;70.98;101479.05;1675020;84;21382;-53
2023/01/21 13:12:45;;;;;;;26.42;13.95;;;;;;;3.50;71.14;101484.45;1676141;83;21797;-54
2023/01/21 13:15:52;;;;;;;31.33;13.95;;;;;;;3.53;71.16;101480.19;1674382;85;21228;-55
2023/01/21 13:19:00;;;;;;;28.95;13.90;;;;;;;3.55;71.27;101474.66;1677524;85;21292;-53
2023/01/21 13:22:25;;;;;;;26.07;13.25;;;;;;;3.61;71.34;101490.00;1677629;85;21216;-53
2023/01/21 13:25:42;;;;;;;28.55;14.25;;;;;;;3.58;71.17;101503.75;1659707;85;21284;-55
2023/01/21 13:28:58;;;;;;;25.48;12.85;;;;;;;3.48;70.97;101511.23;1693997;82;21774;-55
2023/01/21 13:32:32;;;;;;;28.27;13.10;;;;;;;3.45;71.15;101510.96;1676898;85;21767;-53
2023/01/21 13:35:52;;;;;;;27.20;14.00;;;;;;;3.49;71.23;101516.53;1677193;84;21740;-53
2023/01/21 13:39:11;;;;;;;27.90;14.63;;;;;;;3.46;71.14;101515.39;1658988;84;21661;-54
2023/01/21 13:42:48;;;;;;;27.62;13.98;;;;;;;3.41;71.10;101512.12;1652548;86;21280;-53
2023/01/21 13:46:24;;;;;;;25.90;14.13;;;;;;;3.41;71.23;101522.95;1711218;82;21233;-53
2023/01/21 13:50:14;;;;;;;27.32;13.10;;;;;;;3.40;71.19;101526.63;1705644;82;21295;-54
2023/01/21 13:53:33;;;;;;;25.15;13.10;;;;;;;3.34;71.13;101527.52;1683751;82;21761;-54
2023/01/21 13:57:02;;;;;;;28.93;13.43;;;;;;;3.27;71.21;101535.69;1684093;84;21280;-53
2023/01/21 14:00:29;;;;;;;24.40;12.15;;;;;;;3.29;71.34;101533.25;1683651;84;21691;-53
2023/01/21 14:03:51;;;;;;;24.47;13.50;;;;;;;3.33;71.42;101547.45;1683839;84;21216;-54
2023/01/21 14:07:13;;;;;;;24.07;12.82;;;;;;;3.32;71.38;101550.62;1684103;84;21307;-53
2023/01/21 14:10:30;;;;;;;26.00;13.18;;;;;;;3.34;71.48;101560.00;1683712;84;21291;-53
2023/01/21 14:13:57;;;;;;;25.68;13.28;;;;;;;3.34;71.46;101554.11;1706157;83;21252;-54
2023/01/21 14:17:51;;;;;;;26.30;13.32;;;;;;;3.37;71.49;101555.73;1711816;83;21208;-53
2023/01/21 14:21:21;;;;;;;23.83;13.05;;;;;;;3.38;71.49;101558.33;1695578;83;21281;-52
2023/01/21 14:24:37;;;;;;;;;;;;;;;3.32;71.36;101557.39;1713074;82;21209;-53
2023/01/21 14:28:12;;;;;;;22.98;12.55;;;;;;;3.19;71.22;101559.16;1710760;82;20219;-53
2023/01/21 14:31:24;;;;;;;26.20;13.32;;;;;;;3.18;71.39;101563.32;1711829;83;21210;-53
2023/01/21 14:34:39;;;;;;;25.68;13.78;;;;;;;3.14;71.43;101568.05;1711425;82;21237;-53
2023/01/21 14:38:00;;;;;;;29.75;12.68;;;;;;;3.14;71.33;101566.70;1704485;83;21229;-54
2023/01/21 14:41:17;;;;;;;29.25;13.08;;;;;;;3.10;71.24;101569.23;1649923;86;21785;-53
2023/01/21 14:44:44;;;;;;;27.60;13.20;;;;;;;3.08;71.31;101576.58;1669756;86;21617;-53
2023/01/21 14:48:00;;;;;;;26.00;13.35;;;;;;;3.07;71.37;101576.20;1671206;84;21194;-53
2023/01/21 14:51:18;;;;;;;25.82;13.68;;;;;;;3.12;71.49;101579.48;1673629;84;21235;-53
2023/01/21 14:54:32;;;;;;;30.80;14.40;;;;;;;3.16;71.53;101574.24;1658067;84;21276;-53